createdAt,value
2022-09-20T00:01:10.975Z,12.38
2022-09-20T00:03:39.667Z,20.13
2022-09-20T00:06:09.098Z,7.55
2022-09-20T00:08:35.892Z,7.30
2022-09-20T00:11:04.687Z,12.85
2022-09-20T00:13:31.485Z,6.57
2022-09-20T00:15:58.818Z,10.60
2022-09-20T00:18:26.371Z,11.10
2022-09-20T00:20:53.314Z,9.70
2022-09-20T00:23:20.308Z,10.30
2022-09-20T00:25:55.956Z,9.63
2022-09-20T00:28:23.199Z,11.52
2022-09-20T00:30:50.903Z,5.80
2022-09-20T00:33:17.633Z,7.28
2022-09-20T00:35:45.474Z,6.97
2022-09-20T00:38:16.406Z,7.22
2022-09-20T00:40:44.563Z,5.28
2022-09-20T00:43:16.038Z,6.50
2022-09-20T00:45:46.530Z,10.93
2022-09-20T00:48:27.664Z,12.75
2022-09-20T00:51:08.952Z,7.38
2022-09-20T00:53:44.436Z,13.38
2022-09-20T00:56:25.578Z,7.20
2022-09-20T00:58:59.315Z,6.50
2022-09-20T01:01:26.482Z,13.13
2022-09-20T01:03:54.473Z,15.15
2022-09-20T01:06:21.331Z,9.60
2022-09-20T01:08:51.279Z,7.43
2022-09-20T01:11:18.383Z,9.70
2022-09-20T01:13:45.194Z,8.93
2022-09-20T01:16:14.531Z,8.90
2022-09-20T01:18:42.911Z,11.35
2022-09-20T01:21:10.562Z,8.82
2022-09-20T01:23:56.027Z,5.50
2022-09-20T01:26:58.246Z,8.30
2022-09-20T01:29:40.092Z,8.13
2022-09-20T01:32:16.446Z,13.23
2022-09-20T01:34:50.442Z,6.50
2022-09-20T01:37:28.063Z,8.60
2022-09-20T01:40:12.204Z,8.60
2022-09-20T01:42:56.426Z,6.13
2022-09-20T01:45:28.574Z,6.63
2022-09-20T01:48:10.202Z,6.43
2022-09-20T01:50:46.395Z,8.88
2022-09-20T01:53:48.489Z,8.40
2022-09-20T01:56:32.439Z,3.83
2022-09-20T01:59:30.634Z,8.48
2022-09-20T02:02:19.439Z,8.77
2022-09-20T02:05:09.306Z,4.63
2022-09-20T02:07:57.624Z,5.30
2022-09-20T02:10:47.090Z,7.80
2022-09-20T02:13:29.827Z,7.82
2022-09-20T02:16:28.866Z,7.47
2022-09-20T02:19:10.267Z,4.55
2022-09-20T02:21:51.327Z,9.60
2022-09-20T02:24:55.719Z,11.80
2022-09-20T02:27:31.304Z,3.92
2022-09-20T02:30:13.820Z,6.25
2022-09-20T02:33:06.867Z,7.18
2022-09-20T02:35:54.763Z,5.82
2022-09-20T02:38:46.339Z,5.65
2022-09-20T02:41:40.722Z,4.60
2022-09-20T02:44:29.715Z,6.82
2022-09-20T02:47:06.191Z,11.95
2022-09-20T02:49:51.912Z,13.57
2022-09-20T02:52:54.717Z,12.60
2022-09-20T02:55:45.109Z,3.80
2022-09-20T02:59:00.061Z,5.10
2022-09-20T03:01:38.355Z,9.90
2022-09-20T03:04:10.996Z,10.23
2022-09-20T03:06:45.536Z,6.28
2022-09-20T03:09:31.827Z,5.85
2022-09-20T03:12:29.208Z,10.02
2022-09-20T03:15:26.571Z,7.03
2022-09-20T03:18:11.492Z,6.63
2022-09-20T03:21:25.209Z,7.13
2022-09-20T03:24:19.084Z,7.53
2022-09-20T03:26:57.223Z,8.70
2022-09-20T03:29:43.506Z,14.23
2022-09-20T03:32:36.057Z,9.13
2022-09-20T03:35:36.524Z,7.43
2022-09-20T03:38:18.755Z,11.50
2022-09-20T03:41:17.276Z,4.88
2022-09-20T03:43:43.844Z,7.72
2022-09-20T03:46:18.524Z,5.50
2022-09-20T03:49:16.390Z,8.75
2022-09-20T03:52:29.768Z,6.03
2022-09-20T03:55:23.975Z,8.05
2022-09-20T03:58:24.529Z,8.10
2022-09-20T04:01:05.492Z,8.43
2022-09-20T04:04:23.102Z,7.57
2022-09-20T04:07:01.510Z,7.70
2022-09-20T04:09:40.303Z,6.05
2022-09-20T04:12:20.916Z,7.60
2022-09-20T04:15:16.009Z,7.00
2022-09-20T04:18:27.163Z,9.68
2022-09-20T04:21:26.950Z,5.20
2022-09-20T04:24:21.301Z,8.73
2022-09-20T04:26:55.333Z,8.65
2022-09-20T04:29:44.620Z,9.63
2022-09-20T04:32:19.390Z,8.65
2022-09-20T04:35:24.619Z,4.57
2022-09-20T04:37:52.761Z,7.65
2022-09-20T04:40:51.663Z,10.07
2022-09-20T04:43:27.070Z,7.15
2022-09-20T04:46:32.890Z,7.15
2022-09-20T04:49:13.255Z,6.68
2022-09-20T04:51:59.967Z,8.82
2022-09-20T04:54:54.390Z,6.40
2022-09-20T04:57:54.855Z,8.13
2022-09-20T05:00:32.590Z,6.38
2022-09-20T05:03:32.087Z,11.60
2022-09-20T05:06:11.230Z,7.40
2022-09-20T05:09:09.331Z,8.00
2022-09-20T05:11:47.153Z,8.05
2022-09-20T05:14:37.218Z,5.63
2022-09-20T05:17:31.372Z,10.05
2022-09-20T05:20:14.295Z,9.68
2022-09-20T05:23:10.872Z,6.97
2022-09-20T05:26:17.865Z,8.98
2022-09-20T05:29:02.622Z,5.57
2022-09-20T05:31:51.500Z,9.20
2022-09-20T05:34:23.915Z,5.90
2022-09-20T05:37:23.444Z,8.75
2022-09-20T05:39:59.263Z,15.57
2022-09-20T05:42:42.812Z,12.38
2022-09-20T05:45:31.219Z,14.05
2022-09-20T05:48:13.696Z,9.15
2022-09-20T05:50:49.236Z,7.78
2022-09-20T05:53:34.793Z,6.70
2022-09-20T05:56:11.660Z,4.43
2022-09-20T05:59:19.371Z,9.30
2022-09-20T06:02:17.720Z,4.85
2022-09-20T06:04:52.817Z,6.63
2022-09-20T06:07:29.992Z,6.47
2022-09-20T06:10:13.673Z,8.68
2022-09-20T06:12:57.332Z,6.20
2022-09-20T06:15:54.698Z,4.63
2022-09-20T06:18:45.547Z,14.80
2022-09-20T06:21:14.909Z,14.38
2022-09-20T06:23:41.640Z,9.52
2022-09-20T06:26:17.243Z,11.60
2022-09-20T06:28:55.213Z,11.13
2022-09-20T06:31:24.401Z,8.88
2022-09-20T06:34:03.463Z,7.95
2022-09-20T06:37:10.770Z,5.10
2022-09-20T06:40:01.816Z,8.85
2022-09-20T06:42:29.516Z,10.82
2022-09-20T06:44:56.412Z,12.90
2022-09-20T06:47:24.183Z,10.45
2022-09-20T06:49:50.780Z,9.13
2022-09-20T06:52:20.387Z,10.02
2022-09-20T06:54:49.919Z,7.20
2022-09-20T06:57:23.695Z,14.10
2022-09-20T06:59:50.326Z,12.70
2022-09-20T07:02:16.999Z,10.77
2022-09-20T07:04:44.549Z,8.50
2022-09-20T07:07:16.606Z,8.90
2022-09-20T07:09:43.220Z,23.90
2022-09-20T07:12:11.974Z,8.65
2022-09-20T07:14:39.091Z,16.83
2022-09-20T07:17:06.533Z,17.38
2022-09-20T07:19:33.862Z,13.35
2022-09-20T07:22:00.479Z,6.40
2022-09-20T07:24:27.159Z,6.88
2022-09-20T07:27:02.695Z,8.77
2022-09-20T07:29:32.771Z,6.15
2022-09-20T07:31:59.965Z,7.13
2022-09-20T07:34:27.299Z,18.15
2022-09-20T07:36:53.998Z,15.32
2022-09-20T07:39:20.773Z,9.02
2022-09-20T07:41:51.157Z,6.38
2022-09-20T07:44:21.948Z,8.93
2022-09-20T07:47:00.264Z,10.80
2022-09-20T07:49:30.245Z,9.63
2022-09-20T07:51:57.740Z,9.02
2022-09-20T07:54:24.680Z,7.65
2022-09-20T07:56:51.299Z,6.45
2022-09-20T07:59:18.010Z,8.80
2022-09-20T08:01:44.655Z,10.65
2022-09-20T08:04:11.745Z,5.95
2022-09-20T08:06:40.203Z,4.75
2022-09-20T08:09:10.942Z,6.68
2022-09-20T08:11:39.367Z,4.88
2022-09-20T08:14:08.844Z,4.72
2022-09-20T08:16:44.568Z,4.63
2022-09-20T08:19:22.727Z,3.22
2022-09-20T08:21:52.563Z,3.67
2022-09-20T08:24:19.201Z,8.38
2022-09-20T08:26:46.135Z,4.82
2022-09-20T08:29:14.902Z,6.25
2022-09-20T08:31:42.376Z,4.72
2022-09-20T08:34:12.094Z,4.75
2022-09-20T08:36:41.183Z,4.53
2022-09-20T08:42:09.089Z,4.95
2022-09-20T08:44:57.832Z,7.13
2022-09-20T08:47:35.646Z,4.18
2022-09-20T08:50:10.122Z,3.97
2022-09-20T08:52:39.988Z,9.52
2022-09-20T08:55:22.943Z,6.03
2022-09-20T08:57:53.304Z,5.78
2022-09-20T09:00:33.699Z,5.10
2022-09-20T09:03:07.060Z,5.40
2022-09-20T09:05:35.830Z,8.50
2022-09-20T09:08:08.897Z,6.28
2022-09-20T09:10:43.084Z,5.65
2022-09-20T09:13:18.914Z,7.57
2022-09-20T09:15:49.197Z,6.60
2022-09-20T09:18:15.885Z,5.28
2022-09-20T09:20:46.104Z,5.15
2022-09-20T09:23:26.461Z,6.20
2022-09-20T09:25:54.980Z,9.93
2022-09-20T09:28:29.221Z,5.45
2022-09-20T09:31:22.296Z,7.78
2022-09-20T09:33:49.311Z,7.38
2022-09-20T09:36:20.395Z,10.43
2022-09-20T09:38:47.567Z,6.03
2022-09-20T09:41:35.225Z,3.55
2022-09-20T09:44:06.648Z,8.32
2022-09-20T09:46:36.167Z,8.87
2022-09-20T09:49:18.276Z,9.63
2022-09-20T09:52:03.718Z,6.25
2022-09-20T09:54:35.969Z,10.20
2022-09-20T09:59:54.856Z,5.05
2022-09-20T10:02:40.997Z,7.57
2022-09-20T10:05:24.626Z,5.13
2022-09-20T10:08:10.968Z,3.72
2022-09-20T10:11:10.174Z,8.45
2022-09-20T10:14:20.931Z,8.55
2022-09-20T10:17:15.047Z,4.05
2022-09-20T10:20:05.477Z,7.03
2022-09-20T10:23:26.537Z,3.25
2022-09-20T10:25:51.757Z,2.05
2022-09-20T10:28:28.815Z,3.85
2022-09-20T10:31:32.341Z,2.45
2022-09-20T10:34:20.128Z,2.97
2022-09-20T10:36:52.757Z,2.13
2022-09-20T10:39:36.315Z,5.38
2022-09-20T10:42:57.454Z,3.22
2022-09-20T10:49:16.599Z,3.92
2022-09-20T10:52:08.268Z,5.20
2022-09-20T10:55:03.784Z,3.30
2022-09-20T10:58:07.621Z,4.07
2022-09-20T11:00:56.133Z,3.95
2022-09-20T11:03:35.242Z,4.85
2022-09-20T11:06:19.737Z,4.35
2022-09-20T11:08:51.548Z,6.32
2022-09-20T11:11:34.652Z,4.80
2022-09-20T11:14:12.569Z,9.50
2022-09-20T11:17:00.224Z,7.35
2022-09-20T11:19:35.016Z,8.15
2022-09-20T11:22:21.407Z,5.82
2022-09-20T11:25:02.869Z,4.50
2022-09-20T11:27:39.765Z,8.48
2022-09-20T11:30:20.944Z,3.70
2022-09-20T11:33:02.415Z,7.35
2022-09-20T11:35:31.431Z,3.75
2022-09-20T11:38:02.952Z,5.47
2022-09-20T11:40:37.580Z,5.20
2022-09-20T11:43:07.209Z,10.57
2022-09-20T11:45:35.119Z,4.30
2022-09-20T11:48:12.771Z,7.40
2022-09-20T11:50:51.151Z,3.45
2022-09-20T11:53:37.198Z,9.48
2022-09-20T11:56:19.940Z,5.85
2022-09-20T11:58:59.010Z,7.28
2022-09-20T12:01:41.278Z,6.32
2022-09-20T12:04:39.023Z,5.25
2022-09-20T12:07:25.792Z,10.45
2022-09-20T12:10:02.620Z,6.38
2022-09-20T12:12:41.718Z,4.47
2022-09-20T12:15:23.213Z,5.30
2022-09-20T12:17:49.917Z,2.00
2022-09-20T12:20:44.865Z,4.00
2022-09-20T12:23:42.770Z,4.00
2022-09-20T12:26:36.808Z,8.13
2022-09-20T12:29:23.363Z,7.40
2022-09-20T12:31:56.417Z,8.07
2022-09-20T12:34:26.067Z,10.18
2022-09-20T12:36:55.454Z,3.28
2022-09-20T12:39:29.458Z,4.63
2022-09-20T12:42:30.927Z,6.30
2022-09-20T12:45:15.520Z,7.55
2022-09-20T12:47:53.212Z,7.90
2022-09-20T12:50:41.052Z,4.55
2022-09-20T12:53:16.781Z,6.10
2022-09-20T12:56:16.349Z,5.93
2022-09-20T12:58:55.848Z,5.80
2022-09-20T13:01:22.530Z,4.40
2022-09-20T13:03:50.487Z,6.20
2022-09-20T13:06:20.003Z,9.00
2022-09-20T13:09:01.808Z,4.38
2022-09-20T13:11:45.729Z,3.13
2022-09-20T13:14:18.875Z,7.15
2022-09-20T13:17:00.610Z,10.65
2022-09-20T13:19:38.942Z,4.78
2022-09-20T13:22:19.036Z,7.10
2022-09-20T13:24:48.731Z,4.15
2022-09-20T13:27:45.118Z,9.10
2022-09-20T13:30:22.186Z,8.07
2022-09-20T13:32:51.356Z,9.75
2022-09-20T13:35:29.388Z,12.25
2022-09-20T13:38:01.974Z,6.95
2022-09-20T13:40:33.647Z,8.45
2022-09-20T13:43:22.718Z,5.00
2022-09-20T13:45:56.220Z,12.80
2022-09-20T13:48:27.494Z,33.22
2022-09-20T13:50:55.815Z,31.88
2022-09-20T13:53:40.649Z,20.85
2022-09-20T13:56:20.175Z,8.82
2022-09-20T13:58:48.159Z,11.75
2022-09-20T14:01:35.428Z,4.72
2022-09-20T14:04:29.436Z,7.57
2022-09-20T14:06:58.368Z,3.65
2022-09-20T14:09:32.461Z,9.30
2022-09-20T14:12:04.758Z,11.77
2022-09-20T14:14:32.997Z,6.95
2022-09-20T14:17:01.358Z,6.57
2022-09-20T14:19:42.639Z,7.50
2022-09-20T14:22:18.937Z,5.13
2022-09-20T14:25:18.722Z,5.03
2022-09-20T14:27:45.846Z,6.82
2022-09-20T14:30:36.446Z,4.88
2022-09-20T14:33:06.591Z,5.78
2022-09-20T14:35:33.501Z,5.50
2022-09-20T14:38:08.461Z,4.53
2022-09-20T14:40:48.719Z,4.90
2022-09-20T14:43:29.550Z,3.40
2022-09-20T14:46:06.978Z,4.63
2022-09-20T14:48:42.507Z,5.60
2022-09-20T14:51:31.492Z,6.90
2022-09-20T14:54:07.161Z,3.58
2022-09-20T14:56:37.522Z,6.55
2022-09-20T14:59:19.221Z,5.07
2022-09-20T15:01:57.229Z,5.53
2022-09-20T15:04:26.814Z,6.97
2022-09-20T15:06:53.928Z,4.18
2022-09-20T15:09:21.723Z,8.95
2022-09-20T15:12:00.177Z,5.80
2022-09-20T15:14:26.788Z,5.05
2022-09-20T15:16:53.899Z,7.15
2022-09-20T15:19:20.550Z,8.85
2022-09-20T15:21:47.190Z,5.82
2022-09-20T15:24:14.528Z,5.10
2022-09-20T15:26:41.179Z,7.07
2022-09-20T15:29:10.709Z,7.57
2022-09-20T15:31:37.341Z,4.35
2022-09-20T15:34:06.958Z,3.92
2022-09-20T15:36:33.748Z,5.18
2022-09-20T15:39:00.491Z,3.92
2022-09-20T15:41:31.185Z,2.47
2022-09-20T15:43:59.082Z,5.43
2022-09-20T15:46:29.135Z,7.30
2022-09-20T15:48:56.740Z,5.63
2022-09-20T15:51:23.457Z,9.40
2022-09-20T15:54:06.173Z,8.20
2022-09-20T15:56:35.191Z,4.03
2022-09-20T15:59:05.000Z,7.15
2022-09-20T16:01:35.418Z,3.13
2022-09-20T16:04:10.216Z,4.43
2022-09-20T16:06:38.430Z,4.63
2022-09-20T16:09:06.195Z,5.10
2022-09-20T16:11:32.963Z,6.45
2022-09-20T16:14:00.440Z,4.80
2022-09-20T16:16:29.418Z,3.72
2022-09-20T16:19:14.559Z,7.38
2022-09-20T16:21:42.639Z,4.35
2022-09-20T16:24:10.129Z,6.90
2022-09-20T16:26:37.587Z,3.05
2022-09-20T16:29:05.021Z,3.85
2022-09-20T16:31:41.308Z,5.72
2022-09-20T16:34:19.160Z,3.47
2022-09-20T16:36:54.119Z,6.65
2022-09-20T16:39:26.117Z,8.82
2022-09-20T16:41:53.483Z,5.20
2022-09-20T16:44:20.260Z,5.57
2022-09-20T16:46:47.400Z,7.85
2022-09-20T16:49:15.307Z,4.10
2022-09-20T16:51:43.228Z,7.57
2022-09-20T16:54:12.468Z,6.80
2022-09-20T16:56:50.317Z,4.90
2022-09-20T16:59:20.675Z,5.57
2022-09-20T17:01:48.435Z,4.38
2022-09-20T17:04:18.238Z,4.80
2022-09-20T17:06:45.802Z,3.83
2022-09-20T17:09:15.627Z,5.70
2022-09-20T17:11:45.818Z,5.72
2022-09-20T17:14:13.459Z,5.63
2022-09-20T17:16:41.969Z,4.40
2022-09-20T17:19:12.847Z,5.80
2022-09-20T17:21:43.625Z,3.30
2022-09-20T17:24:10.591Z,7.43
2022-09-20T17:26:44.320Z,6.80
2022-09-20T17:29:17.314Z,4.93
2022-09-20T17:31:50.028Z,5.95
2022-09-20T17:34:21.703Z,6.00
2022-09-20T17:36:50.394Z,4.30
2022-09-20T17:39:17.299Z,6.65
2022-09-20T17:41:46.249Z,4.20
2022-09-20T17:44:13.949Z,4.22
2022-09-20T17:46:43.027Z,6.50
2022-09-20T17:49:11.978Z,4.82
2022-09-20T17:51:41.113Z,6.93
2022-09-20T17:54:08.909Z,5.72
2022-09-20T17:56:35.724Z,6.45
2022-09-20T17:59:04.167Z,6.20
2022-09-20T18:01:32.838Z,7.70
2022-09-20T18:04:01.585Z,5.07
2022-09-20T18:06:44.170Z,3.13
2022-09-20T18:11:41.449Z,3.85
2022-09-20T18:14:13.317Z,6.82
2022-09-20T18:16:40.380Z,5.18
2022-09-20T18:19:08.155Z,7.18
2022-09-20T18:21:36.365Z,9.30
2022-09-20T18:24:07.294Z,9.18
2022-09-20T18:26:34.817Z,11.90
2022-09-20T18:29:06.786Z,10.43
2022-09-20T18:31:52.141Z,10.05
2022-09-20T18:34:23.620Z,10.05
2022-09-20T18:36:52.845Z,6.97
2022-09-20T18:39:24.068Z,5.57
2022-09-20T18:41:52.941Z,10.20
2022-09-20T18:44:20.773Z,12.98
2022-09-20T18:46:49.351Z,7.93
2022-09-20T18:49:16.853Z,9.20
2022-09-20T18:51:44.510Z,7.40
2022-09-20T18:54:11.974Z,10.70
2022-09-20T18:56:41.805Z,14.50
2022-09-20T18:59:14.269Z,10.07
2022-09-20T19:01:49.973Z,10.50
2022-09-20T19:04:47.208Z,9.68
2022-09-20T19:07:32.853Z,12.38
2022-09-20T19:10:36.040Z,11.77
2022-09-20T19:13:17.972Z,8.40
2022-09-20T19:16:15.391Z,10.05
2022-09-20T19:19:07.403Z,10.85
2022-09-20T19:21:52.179Z,13.50
2022-09-20T19:24:24.982Z,12.98
2022-09-20T19:26:51.876Z,13.90
2022-09-20T19:29:24.782Z,14.20
2022-09-20T19:31:55.382Z,8.57
2022-09-20T19:34:25.642Z,16.05
2022-09-20T19:37:19.016Z,23.02
2022-09-20T19:39:57.655Z,19.48
2022-09-20T19:42:54.708Z,29.58
2022-09-20T19:45:33.155Z,33.30
2022-09-20T19:48:07.178Z,44.90
2022-09-20T19:50:50.571Z,38.65
2022-09-20T19:53:20.327Z,39.70
2022-09-20T19:55:52.154Z,43.00
2022-09-20T19:58:19.299Z,32.08
2022-09-20T20:00:47.153Z,26.70
2022-09-20T20:03:15.624Z,29.38
2022-09-20T20:05:52.095Z,24.52
2022-09-20T20:08:23.843Z,12.93
2022-09-20T20:11:18.130Z,18.13
2022-09-20T20:14:03.144Z,13.68
2022-09-20T20:17:05.478Z,10.65
2022-09-20T20:19:38.742Z,10.18
2022-09-20T20:22:20.300Z,9.90
2022-09-20T20:24:51.705Z,14.07
2022-09-20T20:27:19.623Z,8.85
2022-09-20T20:29:47.047Z,10.85
2022-09-20T20:32:15.085Z,10.02
2022-09-20T20:34:42.081Z,7.88
2022-09-20T20:37:09.015Z,4.10
2022-09-20T20:39:35.782Z,9.25
2022-09-20T20:42:03.857Z,6.82
2022-09-20T20:44:31.402Z,7.03
2022-09-20T20:46:58.120Z,7.93
2022-09-20T20:49:24.820Z,11.50
2022-09-20T20:51:51.578Z,9.80
2022-09-20T20:54:18.427Z,7.68
2022-09-20T20:56:45.130Z,3.53
2022-09-20T20:59:11.800Z,12.45
2022-09-20T21:01:44.956Z,11.52
2022-09-20T21:04:12.934Z,15.13
2022-09-20T21:06:41.371Z,12.98
2022-09-20T21:09:09.703Z,10.27
2022-09-20T21:11:38.907Z,15.70
2022-09-20T21:14:07.186Z,11.18
2022-09-20T21:16:36.556Z,9.27
2022-09-20T21:19:04.582Z,7.95
2022-09-20T21:21:36.647Z,10.82
2022-09-20T21:24:05.900Z,8.40
2022-09-20T21:26:34.435Z,9.27
2022-09-20T21:29:03.678Z,12.60
2022-09-20T21:31:33.240Z,10.38
2022-09-20T21:34:00.270Z,10.40
2022-09-20T21:36:28.874Z,6.93
2022-09-20T21:38:55.802Z,9.02
2022-09-20T21:41:25.054Z,6.78
2022-09-20T21:43:57.043Z,10.05
2022-09-20T21:46:29.102Z,9.32
2022-09-20T21:49:01.380Z,9.48
2022-09-20T21:51:31.420Z,6.07
2022-09-20T21:54:01.281Z,8.90
2022-09-20T21:56:31.121Z,9.43
2022-09-20T21:58:58.513Z,7.38
2022-09-20T22:01:27.175Z,7.13
2022-09-20T22:03:57.362Z,9.30
2022-09-20T22:06:30.922Z,7.28
2022-09-20T22:09:01.112Z,13.88
2022-09-20T22:11:31.060Z,13.85
2022-09-20T22:13:59.082Z,9.88
2022-09-20T22:16:28.783Z,8.68
2022-09-20T22:18:56.209Z,6.90
2022-09-20T22:21:31.827Z,12.77
2022-09-20T22:24:01.463Z,7.18
2022-09-20T22:26:35.014Z,9.45
2022-09-20T22:29:03.082Z,7.65
2022-09-20T22:31:32.185Z,6.50
2022-09-20T22:34:01.316Z,9.43
2022-09-20T22:36:30.742Z,5.32
2022-09-20T22:38:57.532Z,6.97
2022-09-20T22:41:24.914Z,6.28
2022-09-20T22:43:51.976Z,9.70
2022-09-20T22:46:21.737Z,5.03
2022-09-20T22:48:49.405Z,8.93
2022-09-20T22:51:19.187Z,5.65
2022-09-20T22:53:47.485Z,6.95
2022-09-20T22:56:19.234Z,7.13
2022-09-20T22:58:57.313Z,5.40
2022-09-20T23:01:29.346Z,4.40
2022-09-20T23:04:23.421Z,12.05
2022-09-20T23:06:54.985Z,9.32
2022-09-20T23:09:25.225Z,8.38
2022-09-20T23:11:52.258Z,8.82
2022-09-20T23:14:21.883Z,13.20
2022-09-20T23:16:49.423Z,6.43
2022-09-20T23:19:17.312Z,5.55
2022-09-20T23:21:44.922Z,7.25
2022-09-20T23:24:16.565Z,8.30
2022-09-20T23:26:44.321Z,9.67
2022-09-20T23:29:13.657Z,7.85
2022-09-20T23:31:45.873Z,8.35
2022-09-20T23:34:14.123Z,8.10
2022-09-20T23:36:41.635Z,9.05
2022-09-20T23:39:09.478Z,8.23
2022-09-20T23:41:37.069Z,6.10
2022-09-20T23:44:06.397Z,5.35
2022-09-20T23:46:33.982Z,9.77
2022-09-20T23:49:00.772Z,7.80
2022-09-20T23:51:28.957Z,5.88
2022-09-20T23:53:56.139Z,6.78
2022-09-20T23:56:23.900Z,7.00
2022-09-20T23:58:51.162Z,6.43
